Time;durP1;ratioP1;P1;durP2;ratioP2;P2;SDS_P1;SDS_P2;PMS_P1;PMS_P2;Temp;Humidity;BMP_temperature;BMP_pressure;BME280_temperature;BME280_humidity;BME280_pressure;Samples;Min_cycle;Max_cycle;Signal;HPM_P1;HPM_P2
2021/05/18 00:01:55;;;;;;;1.30;1.10;;;;;;;10.85;60.50;98036.09;127414;1098;64265;-77
2021/05/18 00:04:31;;;;;;;2.30;1.17;;;;;;;10.83;60.51;98032.72;126526;1098;63434;-77
2021/05/18 00:07:08;;;;;;;1.50;1.00;;;;;;;10.79;61.04;98040.14;127364;1091;64709;-78
2021/05/18 00:12:30;;;;;;;3.67;1.07;;;;;;;10.79;60.55;98036.63;127389;1098;64159;-78
2021/05/18 00:15:00;;;;;;;4.43;0.77;;;;;;;10.75;60.83;98029.86;127387;1098;64285;-78
2021/05/18 00:17:28;;;;;;;3.30;1.10;;;;;;;10.78;60.60;98040.29;126554;1091;64365;-77
2021/05/18 00:19:57;;;;;;;1.00;0.90;;;;;;;10.78;60.97;98049.14;127396;1098;64317;-78
2021/05/18 00:22:39;;;;;;;2.85;1.28;;;;;;;10.76;60.86;98039.59;127372;1098;64153;-78
2021/05/18 00:25:07;;;;;;;1.00;0.90;;;;;;;10.73;60.91;98047.86;127363;1098;64204;-77
2021/05/18 00:27:42;;;;;;;1.77;1.20;;;;;;;10.70;61.17;98048.14;127400;1098;64233;-78
2021/05/18 00:30:17;;;;;;;0.83;0.70;;;;;;;10.66;60.89;98049.39;127402;1098;64473;-77
2021/05/18 00:32:46;;;;;;;3.43;0.80;;;;;;;10.63;61.13;98041.66;126267;1099;64192;-78
2021/05/18 00:35:13;;;;;;;0.70;0.70;;;;;;;10.60;61.07;98041.91;127356;1098;64327;-78
2021/05/18 00:37:59;;;;;;;5.50;0.90;;;;;;;10.59;61.22;98042.91;127358;1098;64361;-79
2021/05/18 00:40:35;;;;;;;1.83;1.10;;;;;;;10.55;61.06;98043.16;127155;1099;62309;-78
2021/05/18 00:43:03;;;;;;;1.40;0.70;;;;;;;10.51;61.34;98043.59;127352;1098;62722;-77
2021/05/18 00:45:38;;;;;;;1.20;0.73;;;;;;;10.47;61.18;98042.99;126554;1093;63243;-78
2021/05/18 00:48:09;;;;;;;1.37;1.03;;;;;;;10.46;61.15;98043.98;126515;1098;64256;-77
2021/05/18 00:50:40;;;;;;;2.00;1.13;;;;;;;10.40;61.35;98049.84;126977;1098;64233;-77
2021/05/18 00:53:12;;;;;;;1.97;1.10;;;;;;;10.35;61.20;98048.56;127406;1098;63527;-77
2021/05/18 00:55:51;;;;;;;1.40;0.90;;;;;;;10.28;61.35;98049.09;127387;1098;64230;-77
2021/05/18 00:58:33;;;;;;;1.10;0.70;;;;;;;10.24;61.51;98050.36;127423;1090;64201;-78
2021/05/18 01:01:11;;;;;;;4.77;0.90;;;;;;;10.21;61.49;98052.40;127136;1098;64150;-77
2021/05/18 01:03:42;;;;;;;0.90;0.70;;;;;;;10.18;61.58;98047.31;127360;1098;64364;-77
2021/05/18 01:06:31;;;;;;;1.77;1.10;;;;;;;10.16;61.57;98050.12;127404;1098;64313;-77
2021/05/18 01:09:10;;;;;;;1.35;1.00;;;;;;;10.15;61.47;98051.09;127360;1098;64329;-78
2021/05/18 01:11:41;;;;;;;4.53;1.00;;;;;;;10.12;61.66;98051.38;127147;1098;64719;-78
2021/05/18 01:14:15;;;;;;;2.07;1.10;;;;;;;10.08;61.70;98062.44;127324;1092;64266;-78
2021/05/18 01:16:59;;;;;;;;;;;;;;;;;;;;;
2021/05/18 01:19:50;;;;;;;1.10;0.85;;;;;;;9.96;61.92;98070.50;127385;1098;64224;-78
2021/05/18 01:22:17;;;;;;;4.10;0.87;;;;;;;10.00;62.01;98077.28;127405;1098;64308;-77
2021/05/18 01:24:44;;;;;;;2.97;1.23;;;;;;;10.01;62.07;98075.45;127153;1099;64278;-78
2021/05/18 01:27:12;;;;;;;2.90;0.97;;;;;;;10.04;62.07;98085.84;127098;1092;64314;-78
2021/05/18 01:29:40;;;;;;;3.63;0.83;;;;;;;10.05;61.99;98086.69;127382;1098;64268;-77
2021/05/18 01:32:09;;;;;;;2.50;1.23;;;;;;;10.03;62.10;98095.67;127454;1098;64223;-78
2021/05/18 01:34:44;;;;;;;1.00;0.67;;;;;;;10.03;62.28;98082.34;127117;1098;64826;-78
2021/05/18 01:37:11;;;;;;;6.37;1.10;;;;;;;10.03;62.25;98089.50;126549;1092;63241;-77
2021/05/18 01:45:29;;;;;;;;;;;;;;;;;;;;;
2021/05/18 01:48:33;;;;;;;;;;;;;;;;;;;;;
2021/05/18 01:51:17;;;;;;;1.60;0.97;;;;;;;9.98;62.31;98089.03;126970;1101;64181;-78
2021/05/18 01:54:22;;;;;;;1.90;0.80;;;;;;;9.93;62.17;98099.27;126966;1101;64271;-78
2021/05/18 01:59:54;;;;;;;1.70;0.80;;;;;;;9.84;62.41;98098.20;127035;1101;64345;-77
2021/05/18 02:02:53;;;;;;;2.90;0.77;;;;;;;9.84;62.14;98098.20;127048;1101;64202;-78
2021/05/18 02:05:53;;;;;;;;;;;;;;;9.80;62.37;98101.25;127049;1101;64222;-77
2021/05/18 02:09:11;;;;;;;;;;;;;;;;;;;;;
2021/05/18 02:12:00;;;;;;;0.60;0.60;;;;;;;9.73;62.47;98115.13;126703;1096;63763;-78
2021/05/18 02:19:32;;;;;;;;;;;;;;;;;;;;;
2021/05/18 02:25:23;;;;;;;2.27;0.93;;;;;;;9.52;62.90;98127.55;126382;1105;64248;-77
2021/05/18 02:28:07;;;;;;;3.50;1.10;;;;;;;9.51;62.70;98130.35;125784;1104;64086;-78
2021/05/18 02:30:38;;;;;;;0.70;0.60;;;;;;;9.51;63.01;98125.02;126636;1105;62610;-78
2021/05/18 02:33:47;;;;;;;4.03;1.20;;;;;;;9.53;63.06;98126.58;126629;1104;62400;-77
2021/05/18 02:36:39;;;;;;;;;;;;;;;;;;;;;
2021/05/18 02:49:45;;;;;;;1.53;0.83;;;;;;;9.57;63.21;98132.52;126556;1104;64244;-77
2021/05/18 02:52:39;;;;;;;4.73;1.20;;;;;;;9.57;63.29;98140.51;126614;1104;64346;-78
2021/05/18 02:55:22;;;;;;;6.07;1.10;;;;;;;9.56;63.70;98147.66;126826;1102;64394;-78
2021/05/18 02:58:01;;;;;;;1.07;0.83;;;;;;;9.55;63.29;98155.80;127001;1093;64525;-75
2021/05/18 03:00:41;;;;;;;2.43;0.70;;;;;;;9.53;63.31;98157.72;127011;1101;64637;-79
2021/05/18 03:03:08;;;;;;;1.50;0.80;;;;;;;9.55;63.42;98155.80;126986;1101;64160;-79
2021/05/18 03:05:41;;;;;;;0.70;0.50;;;;;;;9.57;63.69;98154.68;126976;1101;62783;-78
2021/05/18 03:08:13;;;;;;;0.67;0.67;;;;;;;9.58;63.59;98150.19;126192;1101;63025;-79
2021/05/18 03:10:43;;;;;;;1.70;0.73;;;;;;;9.57;63.71;98151.17;126988;1093;64456;-78
2021/05/18 03:13:13;;;;;;;0.50;0.50;;;;;;;9.57;63.76;98153.84;127029;1101;64362;-78
2021/05/18 03:15:50;;;;;;;3.00;0.87;;;;;;;9.58;63.52;98158.19;126986;1101;64283;-78
2021/05/18 03:18:41;;;;;;;;;;;;;;;;;;;;;
2021/05/18 03:21:11;;;;;;;1.10;0.60;;;;;;;9.64;63.67;98163.02;127374;1098;64360;-78
2021/05/18 03:23:45;;;;;;;1.93;1.00;;;;;;;9.66;64.10;98158.39;127420;1098;64275;-78
2021/05/18 03:26:24;;;;;;;1.63;0.80;;;;;;;9.68;63.92;98151.14;127089;1098;64294;-78
2021/05/18 03:29:12;;;;;;;0.90;0.73;;;;;;;9.69;63.74;98163.49;127371;1098;64199;-78
2021/05/18 03:34:34;;;;;;;5.00;0.90;;;;;;;9.70;63.93;98159.84;127364;1092;63424;-78
2021/05/18 03:37:25;;;;;;;1.37;0.90;;;;;;;9.73;64.06;98159.58;127356;1093;64255;-78
2021/05/18 03:40:08;;;;;;;3.37;0.90;;;;;;;9.76;63.91;98162.00;127379;1098;64616;-78
2021/05/18 03:42:52;;;;;;;;;;;;;;;;;;;;;
2021/05/18 03:45:31;;;;;;;2.57;1.57;;;;;;;9.89;63.91;98154.67;127392;1098;64195;-77
2021/05/18 03:53:54;;;;;;;1.00;0.70;;;;;;;10.06;64.04;98168.44;127389;1098;64195;-77
2021/05/18 04:02:59;;;;;;;2.03;1.07;;;;;;;10.27;63.91;98164.81;127390;1097;64204;-77
2021/05/18 04:11:44;;;;;;;2.25;1.10;;;;;;;10.46;63.95;98169.43;127405;1098;64248;-78
2021/05/18 04:16:58;;;;;;;1.20;0.50;;;;;;;10.50;63.98;98175.37;127358;1098;62880;-79
2021/05/18 04:19:42;;;;;;;1.03;0.90;;;;;;;10.55;63.98;98179.30;127391;1098;64428;-77
2021/05/18 04:25:33;;;;;;;2.40;0.90;;;;;;;10.76;63.95;98176.63;127034;1101;64265;-77
2021/05/18 04:59:38;;;;;;;1.93;0.90;;;;;;;11.83;63.29;98220.62;126984;1101;64409;-79
2021/05/18 05:07:55;;;;;;;2.60;1.10;;;;;;;11.83;63.79;98222.41;127024;1101;64603;-79
2021/05/18 05:15:47;;;;;;;3.03;1.27;;;;;;;12.05;63.53;98227.52;127010;1101;64204;-78
2021/05/18 05:18:21;;;;;;;5.57;1.47;;;;;;;12.15;63.67;98225.70;126968;1101;64108;-79
2021/05/18 05:20:47;;;;;;;7.83;1.80;;;;;;;12.21;63.04;98224.27;127022;1101;64195;-79
2021/05/18 05:23:16;;;;;;;5.03;1.30;;;;;;;12.34;63.47;98227.54;127039;1101;64334;-79
2021/05/18 05:25:43;;;;;;;7.53;1.70;;;;;;;12.63;63.59;98219.45;127270;1098;64355;-78
2021/05/18 05:28:10;;;;;;;1.80;1.50;;;;;;;12.92;63.31;98229.27;127422;1098;64336;-78
2021/05/18 05:30:37;;;;;;;4.40;1.73;;;;;;;13.06;63.14;98228.80;127403;1092;64185;-78
2021/05/18 05:33:11;;;;;;;7.13;2.13;;;;;;;13.20;63.07;98227.47;127391;1093;64307;-78
2021/05/18 05:35:38;;;;;;;10.13;2.07;;;;;;;13.30;62.81;98235.52;127086;1098;64294;-79
2021/05/18 05:38:08;;;;;;;3.63;1.67;;;;;;;13.37;63.03;98223.20;127347;1098;64355;-78
2021/05/18 05:40:35;;;;;;;4.97;1.70;;;;;;;13.46;63.33;98227.67;127123;1092;64311;-78
2021/05/18 05:43:01;;;;;;;4.27;1.60;;;;;;;13.53;63.15;98231.44;127397;1098;64191;-78
2021/05/18 05:45:30;;;;;;;1.93;1.50;;;;;;;13.63;62.98;98226.88;127027;1098;64153;-78
2021/05/18 05:48:00;;;;;;;8.10;1.95;;;;;;;13.71;62.55;98232.33;127082;1092;64198;-79
2021/05/18 05:50:27;;;;;;;2.13;1.53;;;;;;;13.82;62.23;98225.92;127390;1098;64479;-78
2021/05/18 05:53:02;;;;;;;5.13;1.80;;;;;;;13.97;62.38;98237.81;127282;1098;63063;-79
2021/05/18 05:55:28;;;;;;;3.35;1.60;;;;;;;14.08;62.13;98226.02;126754;1092;64348;-79
2021/05/18 05:57:58;;;;;;;4.10;1.20;;;;;;;14.23;62.17;98232.53;127103;1098;64393;-81
2021/05/18 06:00:25;;;;;;;2.90;1.20;;;;;;;14.54;62.04;98230.31;126833;1097;64336;-82
2021/05/18 06:02:54;;;;;;;2.10;1.53;;;;;;;14.70;61.60;98221.55;126642;1098;64960;-80
2021/05/18 06:05:21;;;;;;;6.67;1.60;;;;;;;14.72;61.43;98226.77;127336;1093;64231;-79
2021/05/18 06:07:48;;;;;;;4.60;1.37;;;;;;;14.75;61.71;98229.13;127419;1098;64227;-77
2021/05/18 06:10:28;;;;;;;3.90;1.47;;;;;;;14.98;61.70;98232.15;127345;1098;63076;-79
2021/05/18 06:13:07;;;;;;;3.60;1.13;;;;;;;15.20;61.45;98241.51;127374;1097;64160;-78
2021/05/18 06:49:18;;;;;;;1.30;1.00;;;;;;;15.97;60.59;98253.13;126563;1093;63806;-77
2021/05/18 06:55:47;;;;;;;2.57;1.13;;;;;;;16.09;60.28;98254.52;126956;1101;64513;-79
2021/05/18 06:58:14;;;;;;;2.93;1.20;;;;;;;16.31;60.06;98259.28;126818;1101;64915;-79
2021/05/18 07:00:46;;;;;;;4.80;1.10;;;;;;;16.42;60.29;98256.27;126826;1102;64384;-79
2021/05/18 07:03:16;;;;;;;1.00;0.80;;;;;;;16.68;60.63;98257.97;126792;1096;64235;-79
2021/05/18 07:05:55;;;;;;;3.90;1.03;;;;;;;16.95;60.10;98260.34;126707;1101;64146;-78
2021/05/18 07:08:54;;;;;;;0.60;0.60;;;;;;;17.19;60.13;98258.63;126680;1101;64301;-80
2021/05/18 07:11:09;;;;;;;1.20;1.00;;;;;;;17.23;59.00;98257.24;125735;1102;64644;-76
2021/05/18 07:13:41;;;;;;;4.17;0.80;;;;;;;17.01;58.75;98259.66;125846;1101;64383;-78
2021/05/18 07:16:16;;;;;;;1.13;1.00;;;;;;;17.00;59.10;98257.13;126684;1101;64330;-79
2021/05/18 07:18:47;;;;;;;0.80;0.80;;;;;;;17.08;58.94;98267.06;126712;1096;64451;-79
2021/05/18 07:21:17;;;;;;;2.57;1.30;;;;;;;16.90;59.29;98270.78;126715;1102;64509;-79
2021/05/18 07:23:51;;;;;;;;;;;;;;;17.07;59.87;98259.98;127000;1101;64419;-79
2021/05/18 07:26:31;;;;;;;1.37;0.70;;;;;;;17.22;59.39;98260.96;126972;1101;64226;-79
2021/05/18 07:29:00;;;;;;;3.57;1.00;;;;;;;17.32;58.30;98260.78;126971;1101;64565;-79
2021/05/18 07:31:28;;;;;;;2.17;0.73;;;;;;;17.37;57.62;98270.05;127054;1099;64336;-75
2021/05/18 07:33:54;;;;;;;0.80;0.80;;;;;;;17.59;59.05;98262.22;126553;1098;64227;-76
2021/05/18 07:36:21;;;;;;;3.87;0.90;;;;;;;17.80;58.05;98273.29;125964;1098;64315;-78
2021/05/18 07:38:50;;;;;;;2.13;1.37;;;;;;;17.74;58.00;98271.28;127404;1098;64323;-78
2021/05/18 07:41:18;;;;;;;2.17;1.20;;;;;;;17.47;57.56;98284.17;127074;1098;64307;-79
2021/05/18 07:43:49;;;;;;;5.60;0.90;;;;;;;17.56;57.99;98280.45;126498;1098;64587;-81
2021/05/18 07:46:22;;;;;;;1.93;1.10;;;;;;;17.60;58.12;98286.33;125624;1093;64319;-81
2021/05/18 07:49:14;;;;;;;1.60;1.00;;;;;;;17.29;58.68;98275.45;125783;1091;64278;-79
2021/05/18 07:59:13;;;;;;;2.00;1.20;;;;;;;17.08;58.49;98294.88;125583;1098;64326;-79
2021/05/18 08:05:34;;;;;;;10.87;2.20;;;;;;;17.36;58.40;98276.44;125688;1098;64297;-81
2021/05/18 08:08:06;;;;;;;6.03;1.83;;;;;;;17.46;57.88;98278.95;125719;1098;64424;-80
2021/05/18 08:10:46;;;;;;;2.93;1.20;;;;;;;17.60;58.06;98290.89;125524;1092;64258;-77
2021/05/18 08:13:17;;;;;;;1.33;0.77;;;;;;;17.94;57.99;98275.27;125662;1098;64371;-78
2021/05/18 08:53:01;;;;;;;1.50;0.80;;;;;;;18.44;56.73;98276.65;125535;1098;64393;-80
2021/05/18 09:50:28;;;;;;;4.27;1.20;;;;;;;18.72;55.55;98339.20;125747;1098;64316;-78
2021/05/18 10:23:12;;;;;;;2.13;1.60;;;;;;;19.15;54.60;98316.03;125096;1101;64490;-77
2021/05/18 10:26:46;;;;;;;1.90;1.00;;;;;;;19.39;54.29;98314.94;125353;1101;64271;-81
2021/05/18 10:36:42;;;;;;;1.95;1.15;;;;;;;20.21;52.53;98320.28;125371;1101;64262;-82
2021/05/18 10:39:24;;;;;;;2.87;1.00;;;;;;;19.45;53.54;98322.32;125359;1101;64505;-80
2021/05/18 10:42:11;;;;;;;1.30;1.03;;;;;;;19.25;53.46;98326.59;125364;1101;64326;-81
2021/05/18 10:45:00;;;;;;;5.27;1.20;;;;;;;18.87;54.28;98309.50;125247;1096;64316;-82
2021/05/18 10:47:59;;;;;;;1.50;0.93;;;;;;;18.49;53.02;98324.78;125513;1093;64461;-84
2021/05/18 10:50:47;;;;;;;1.90;0.85;;;;;;;18.18;53.56;98328.33;125761;1093;64349;-78
2021/05/18 10:53:28;;;;;;;6.70;4.60;;;;;;;18.06;53.39;98327.03;125587;1098;64316;-77
2021/05/18 10:56:14;;;;;;;4.85;1.20;;;;;;;17.98;54.01;98325.21;125587;1098;64284;-82
2021/05/18 10:58:44;;;;;;;5.20;1.40;;;;;;;17.60;53.88;98331.39;125503;1098;64345;-84
2021/05/18 11:01:23;;;;;;;6.03;1.30;;;;;;;17.20;54.53;98330.45;125803;1098;64329;-77
2021/05/18 11:04:10;;;;;;;2.50;1.10;;;;;;;17.13;54.37;98340.24;125495;1091;64397;-79
2021/05/18 11:06:54;;;;;;;2.37;1.20;;;;;;;17.23;54.39;98340.89;125790;1093;64387;-77
2021/05/18 11:09:37;;;;;;;3.85;1.20;;;;;;;17.30;53.67;98341.89;125946;1098;64313;-78
2021/05/18 11:12:36;;;;;;;5.17;1.07;;;;;;;17.31;53.98;98340.91;125745;1093;64332;-77
2021/05/18 11:15:07;;;;;;;1.73;1.00;;;;;;;17.68;54.33;98344.86;125705;1093;64320;-78
2021/05/18 11:18:28;;;;;;;4.33;1.53;;;;;;;18.26;53.57;98336.41;125646;1093;64287;-80
2021/05/18 11:21:08;;;;;;;3.53;1.13;;;;;;;18.67;53.75;98341.60;125666;1093;64397;-80
2021/05/18 11:23:48;;;;;;;9.75;1.25;;;;;;;19.33;53.01;98336.49;125803;1098;64262;-79
2021/05/18 11:26:18;;;;;;;3.07;0.93;;;;;;;19.65;52.24;98332.65;125598;1094;64416;-82
2021/05/18 11:28:52;;;;;;;4.93;1.10;;;;;;;19.48;52.43;98326.55;125742;1098;64307;-82
2021/05/18 11:31:42;;;;;;;7.77;1.40;;;;;;;19.75;53.23;98330.52;125739;1093;64509;-82
2021/05/18 11:34:09;;;;;;;4.30;1.20;;;;;;;19.20;53.40;98334.41;125365;1099;64367;-82
2021/05/18 11:36:41;;;;;;;7.63;6.43;;;;;;;18.68;52.83;98350.55;125626;1098;64353;-82
2021/05/18 11:39:13;;;;;;;2.70;2.37;;;;;;;18.04;52.23;98356.93;125647;1092;64301;-80
2021/05/18 11:41:42;;;;;;;2.10;1.07;;;;;;;17.45;52.75;98364.49;125667;1098;64763;-83
2021/05/18 11:44:14;;;;;;;1.43;1.33;;;;;;;17.19;53.10;98364.69;125663;1098;64259;-79
2021/05/18 11:46:48;;;;;;;2.67;1.07;;;;;;;17.17;52.70;98373.94;125806;1091;64339;-77
2021/05/18 11:49:23;;;;;;;3.15;1.15;;;;;;;16.97;52.54;98362.64;125586;1098;64415;-79
2021/05/18 11:52:08;;;;;;;6.87;3.43;;;;;;;16.78;52.93;98374.59;125579;1098;64341;-78
2021/05/18 11:54:43;;;;;;;1.70;1.15;;;;;;;16.72;53.47;98378.80;125690;1093;64186;-81
2021/05/18 11:57:20;;;;;;;2.30;1.20;;;;;;;16.31;53.78;98383.22;125282;1093;64333;-81
2021/05/18 11:59:52;;;;;;;2.40;1.60;;;;;;;16.05;54.66;98379.75;125151;1099;64380;-83
2021/05/18 12:02:31;;;;;;;1.37;1.27;;;;;;;15.72;54.67;98374.20;125288;1099;64342;-84
2021/05/18 12:05:13;;;;;;;2.27;1.33;;;;;;;15.52;55.32;98380.75;125732;1091;65861;-81
2021/05/18 12:07:43;;;;;;;9.83;5.47;;;;;;;15.73;55.65;98366.98;125754;1098;64284;-81
2021/05/18 12:10:36;;;;;;;2.43;2.10;;;;;;;15.93;56.13;98369.26;125581;1093;64304;-80
2021/05/18 12:13:30;;;;;;;2.13;1.30;;;;;;;16.40;56.16;98371.45;125460;1098;64377;-81
2021/05/18 12:16:11;;;;;;;3.57;1.60;;;;;;;16.75;55.98;98373.09;125654;1098;64365;-79
2021/05/18 12:18:53;;;;;;;1.77;1.60;;;;;;;16.89;55.27;98366.19;125603;1091;64470;-80
2021/05/18 12:21:29;;;;;;;2.13;1.80;;;;;;;17.39;55.25;98362.48;125625;1098;64306;-80
2021/05/18 12:24:08;;;;;;;2.70;2.27;;;;;;;17.85;54.21;98349.23;125277;1098;64345;-79
2021/05/18 12:27:15;;;;;;;4.40;1.37;;;;;;;17.85;53.75;98361.90;125650;1092;64224;-80
2021/05/18 12:29:57;;;;;;;2.03;1.90;;;;;;;18.06;53.76;98367.55;125480;1093;64348;-80
2021/05/18 12:32:33;;;;;;;1.90;1.70;;;;;;;18.13;53.79;98357.73;125830;1093;64370;-77
2021/05/18 12:35:28;;;;;;;3.77;2.60;;;;;;;17.87;53.21;98371.50;125691;1098;64265;-80
2021/05/18 12:38:18;;;;;;;2.80;1.50;;;;;;;17.48;53.71;98374.94;125313;1092;64316;-79
2021/05/18 12:40:48;;;;;;;1.90;1.70;;;;;;;17.29;53.90;98373.43;125542;1098;64285;-78
2021/05/18 12:43:18;;;;;;;3.05;2.20;;;;;;;17.52;53.65;98373.59;125390;1093;64329;-78
2021/05/18 12:46:12;;;;;;;1.03;1.00;;;;;;;17.83;54.22;98364.78;125630;1098;64252;-79
2021/05/18 12:48:45;;;;;;;2.93;1.03;;;;;;;18.49;53.71;98359.93;126374;1098;64243;-78
2021/05/18 12:51:20;;;;;;;2.20;1.30;;;;;;;18.84;53.42;98355.86;126876;1098;64210;-78
2021/05/18 12:53:47;;;;;;;3.20;0.97;;;;;;;19.10;53.22;98352.78;125924;1093;64397;-78
2021/05/18 12:56:31;;;;;;;2.60;1.40;;;;;;;19.13;52.77;98357.82;126496;1098;64421;-78
2021/05/18 12:59:06;;;;;;;2.40;0.97;;;;;;;18.89;52.66;98356.14;127352;1098;64267;-79
2021/05/18 13:01:51;;;;;;;1.30;1.20;;;;;;;18.99;53.20;98364.03;126777;1098;64284;-78
2021/05/18 13:04:26;;;;;;;1.00;0.80;;;;;;;18.55;51.58;98360.06;125866;1098;62495;-78
2021/05/18 13:06:56;;;;;;;2.05;1.00;;;;;;;17.88;51.77;98373.21;126601;1098;64288;-79
2021/05/18 13:09:29;;;;;;;1.20;1.10;;;;;;;17.62;52.88;98386.05;126475;1098;64286;-79
2021/05/18 13:12:12;;;;;;;3.10;1.10;;;;;;;17.93;53.29;98378.91;126039;1093;64310;-80
2021/05/18 13:15:20;;;;;;;3.23;1.07;;;;;;;18.21;52.62;98368.52;125948;1098;64355;-78
2021/05/18 13:18:09;;;;;;;4.70;1.37;;;;;;;18.09;52.32;98369.92;126349;1098;64191;-78
2021/05/18 13:20:39;;;;;;;2.65;0.90;;;;;;;18.41;53.02;98362.69;126327;1098;64387;-75
2021/05/18 13:23:13;;;;;;;5.13;0.90;;;;;;;18.55;52.20;98370.88;126871;1098;64316;-77
2021/05/18 13:28:27;;;;;;;1.10;1.00;;;;;;;18.82;52.38;98364.13;127371;1098;64214;-77
2021/05/18 13:30:54;;;;;;;3.20;1.10;;;;;;;18.72;51.88;98365.41;127366;1090;64275;-77
2021/05/18 13:33:23;;;;;;;1.40;0.73;;;;;;;18.43;51.38;98357.94;126502;1098;64048;-77
2021/05/18 13:35:50;;;;;;;4.95;1.35;;;;;;;18.31;51.91;98369.13;126562;1098;63608;-77
2021/05/18 13:38:25;;;;;;;4.70;1.27;;;;;;;18.45;52.04;98374.81;126551;1098;63442;-77
2021/05/18 13:40:52;;;;;;;;;;;;;;;18.48;52.07;98366.36;126561;1098;64598;-76
2021/05/18 13:43:38;;;;;;;;;;;;;;;;;;;;;
2021/05/18 13:46:15;;;;;;;;;;;;;;;18.82;52.02;98366.00;126572;1098;63449;-76
2021/05/18 13:48:44;;;;;;;2.27;1.10;;;;;;;18.94;52.11;98359.16;126533;1098;64247;-76
2021/05/18 13:51:25;;;;;;;;;;;;;;;;;;;;;
2021/05/18 13:53:54;;;;;;;2.17;1.40;;;;;;;18.35;51.85;98369.64;127401;1092;64277;-76
2021/05/18 13:56:23;;;;;;;3.70;1.60;;;;;;;18.00;52.07;98376.36;126526;1098;64224;-76
2021/05/18 13:58:53;;;;;;;1.60;1.10;;;;;;;17.86;52.31;98369.82;126555;1098;63763;-76
2021/05/18 14:01:23;;;;;;;1.77;1.10;;;;;;;17.94;52.30;98377.05;126568;1098;64245;-76
2021/05/18 14:04:00;;;;;;;1.40;1.30;;;;;;;18.08;52.58;98377.19;126825;1091;64214;-76
2021/05/18 14:06:30;;;;;;;1.10;1.00;;;;;;;18.41;52.51;98360.83;126548;1098;64232;-75
2021/05/18 14:09:19;;;;;;;3.23;1.10;;;;;;;18.59;52.54;98363.27;127415;1098;64198;-75
2021/05/18 14:12:05;;;;;;;1.33;1.23;;;;;;;18.77;52.20;98346.79;127176;1092;64232;-76
2021/05/18 14:14:52;;;;;;;5.87;1.33;;;;;;;18.90;52.13;98350.57;126537;1092;63781;-78
2021/05/18 14:17:22;;;;;;;2.67;1.27;;;;;;;18.88;51.25;98344.48;126517;1092;64259;-76
2021/05/18 14:19:52;;;;;;;4.90;1.10;;;;;;;18.57;51.04;98355.30;127403;1098;63414;-76
2021/05/18 14:22:19;;;;;;;5.53;1.50;;;;;;;18.17;51.95;98367.18;126516;1092;63124;-77
2021/05/18 14:25:04;;;;;;;3.57;1.20;;;;;;;17.95;51.51;98368.80;126531;1098;63921;-76
2021/05/18 14:28:09;;;;;;;4.63;1.40;;;;;;;17.66;50.50;98363.94;127384;1092;64244;-76
2021/05/18 14:30:37;;;;;;;2.60;1.67;;;;;;;17.70;51.83;98359.05;127341;1097;64297;-77
2021/05/18 14:33:05;;;;;;;4.17;1.93;;;;;;;17.79;51.69;98358.03;126542;1092;64419;-77
2021/05/18 14:35:51;;;;;;;;;;;;;;;;;;;;;
2021/05/18 14:46:25;;;;;;;2.90;1.40;;;;;;;19.25;51.68;98341.99;127122;1095;64362;-76
2021/05/18 14:57:11;;;;;;;1.70;1.30;;;;;;;19.70;50.21;98343.77;127483;1095;64275;-78
2021/05/18 14:59:40;;;;;;;5.23;1.90;;;;;;;19.71;50.43;98350.87;127130;1096;64307;-76
2021/05/18 15:02:14;;;;;;;2.67;1.50;;;;;;;19.85;49.78;98354.60;127436;1094;64160;-76
2021/05/18 15:04:40;;;;;;;1.50;0.93;;;;;;;19.91;49.89;98343.02;127349;1090;64227;-76
2021/05/18 15:07:07;;;;;;;1.50;1.10;;;;;;;20.05;49.03;98347.62;126551;1090;63930;-76
2021/05/18 15:09:35;;;;;;;3.27;1.47;;;;;;;;;;126929;1095;62428;-76
2021/05/18 15:12:03;;;;;;;2.50;1.30;;;;;;;20.38;48.93;98349.91;126571;1096;64355;-76
2021/05/18 15:14:30;;;;;;;1.87;1.30;;;;;;;20.42;48.13;98345.77;126572;1096;62430;-76
2021/05/18 15:17:04;;;;;;;5.27;1.30;;;;;;;20.36;48.78;98346.52;126494;1098;64202;-78
2021/05/18 15:19:34;;;;;;;2.97;1.30;;;;;;;19.96;48.34;98354.14;127411;1098;64184;-79
2021/05/18 15:22:01;;;;;;;3.33;1.10;;;;;;;19.95;48.32;98366.02;126834;1098;64364;-75
2021/05/18 15:24:28;;;;;;;2.97;1.83;;;;;;;19.95;48.67;98364.14;126542;1097;64419;-78
2021/05/18 15:26:58;;;;;;;4.93;2.33;;;;;;;19.75;49.57;98367.60;127409;1098;64312;-79
2021/05/18 15:29:25;;;;;;;3.73;2.20;;;;;;;19.69;49.86;98364.60;127426;1095;64182;-78
2021/05/18 15:31:52;;;;;;;2.50;1.80;;;;;;;19.45;49.57;98370.23;127391;1090;63821;-77
2021/05/18 15:34:19;;;;;;;5.43;2.13;;;;;;;19.56;50.17;98367.08;127420;1095;64323;-78
2021/05/18 15:36:46;;;;;;;2.70;1.70;;;;;;;20.29;49.37;98370.84;127445;1095;64291;-75
2021/05/18 15:39:13;;;;;;;2.60;1.40;;;;;;;19.80;49.34;98381.44;126896;1095;64182;-76
2021/05/18 15:41:40;;;;;;;3.13;1.70;;;;;;;20.22;48.93;98361.78;127457;1090;64160;-79
2021/05/18 15:44:10;;;;;;;5.47;2.37;;;;;;;20.22;48.48;98373.47;127350;1095;64384;-78
2021/05/18 15:46:39;;;;;;;11.23;9.57;;;;;;;19.56;48.81;98380.62;127400;1098;64285;-78
2021/05/18 15:49:06;;;;;;;14.67;8.70;;;;;;;20.01;48.40;98376.11;127477;1095;64318;-77
2021/05/18 15:51:35;;;;;;;5.37;2.33;;;;;;;20.53;47.02;98367.00;127383;1090;64210;-77
2021/05/18 15:54:06;;;;;;;3.33;1.70;;;;;;;20.76;47.35;98367.70;126580;1098;64352;-79
2021/05/18 15:56:37;;;;;;;14.60;6.00;;;;;;;21.28;47.24;98382.86;127381;1098;64440;-77
2021/05/18 15:59:07;;;;;;;16.50;6.87;;;;;;;21.73;46.94;98371.72;127390;1098;64338;-78
2021/05/18 16:01:44;;;;;;;10.20;5.77;;;;;;;21.65;47.42;98369.16;127308;1091;64192;-79
2021/05/18 16:04:12;;;;;;;11.30;4.63;;;;;;;21.99;47.14;98384.64;127354;1098;64254;-76
2021/05/18 16:06:42;;;;;;;7.33;3.70;;;;;;;21.17;47.27;98374.36;126525;1098;64351;-76
2021/05/18 16:09:11;;;;;;;24.87;10.13;;;;;;;20.19;48.14;98376.57;127382;1098;64361;-77
2021/05/18 16:11:39;;;;;;;11.50;5.57;;;;;;;19.52;48.07;98384.70;127398;1098;64266;-76
2021/05/18 16:14:06;;;;;;;27.37;12.83;;;;;;;19.13;48.78;98382.18;126746;1098;64336;-77
2021/05/18 16:16:34;;;;;;;9.23;5.23;;;;;;;18.93;49.41;98386.39;127373;1098;62532;-77
2021/05/18 16:19:00;;;;;;;5.80;3.13;;;;;;;18.89;49.24;98386.77;127394;1098;64317;-75
2021/05/18 16:21:28;;;;;;;17.67;8.83;;;;;;;18.77;49.04;98388.20;126511;1098;64457;-77
2021/05/18 16:23:59;;;;;;;18.97;8.30;;;;;;;18.76;49.05;98391.90;126511;1097;64291;-76
2021/05/18 16:26:28;;;;;;;19.13;8.07;;;;;;;18.82;49.22;98393.05;127022;1098;64300;-78
2021/05/18 16:28:55;;;;;;;16.10;7.07;;;;;;;18.88;48.82;98390.47;127363;1098;64266;-76
2021/05/18 16:31:23;;;;;;;10.40;5.70;;;;;;;18.95;49.27;98389.75;127364;1098;64259;-79
2021/05/18 16:33:50;;;;;;;10.53;5.43;;;;;;;18.81;48.73;98396.78;127059;1098;64342;-78
2021/05/18 16:36:17;;;;;;;24.63;14.07;;;;;;;18.60;48.96;98395.53;127378;1098;63764;-78
2021/05/18 16:38:44;;;;;;;9.83;5.30;;;;;;;18.34;48.93;98408.50;127398;1098;63438;-78
2021/05/18 16:41:11;;;;;;;9.60;6.20;;;;;;;18.09;49.18;98408.59;126983;1098;64282;-76
2021/05/18 16:43:38;;;;;;;5.23;3.60;;;;;;;17.92;49.30;98406.95;126547;1098;63965;-77
2021/05/18 16:46:05;;;;;;;22.83;12.73;;;;;;;17.74;49.29;98412.55;126525;1093;63765;-77
2021/05/18 16:48:32;;;;;;;9.07;4.60;;;;;;;17.52;49.43;98405.98;126523;1092;62412;-77
2021/05/18 16:51:04;;;;;;;8.17;4.43;;;;;;;17.31;49.08;98408.37;126562;1098;63463;-75
2021/05/18 16:53:32;;;;;;;38.87;19.57;;;;;;;17.12;49.53;98411.40;126593;1097;64208;-77
2021/05/18 16:56:00;;;;;;;12.80;4.30;;;;;;;17.11;49.83;98417.78;127374;1098;64329;-77
2021/05/18 16:58:27;;;;;;;8.07;3.70;;;;;;;17.18;49.62;98416.97;126499;1097;64334;-77
2021/05/18 17:00:54;;;;;;;15.90;9.20;;;;;;;17.21;49.52;98419.31;126525;1098;62856;-78
2021/05/18 17:03:21;;;;;;;5.60;3.33;;;;;;;17.23;49.56;98416.44;126528;1098;64489;-78
2021/05/18 17:05:50;;;;;;;7.23;4.03;;;;;;;17.16;49.48;98416.27;127390;1098;64305;-78
2021/05/18 17:08:33;;;;;;;7.13;3.10;;;;;;;17.00;49.62;98410.88;127378;1098;64256;-78
2021/05/18 17:11:01;;;;;;;5.27;2.10;;;;;;;16.83;49.52;98415.39;127371;1098;64268;-78
2021/05/18 17:13:30;;;;;;;3.90;2.00;;;;;;;16.69;49.30;98419.55;126940;1098;64265;-76
2021/05/18 17:15:57;;;;;;;9.97;4.70;;;;;;;16.56;49.46;98412.95;126580;1098;64308;-77
2021/05/18 17:23:23;;;;;;;;;;;;;;;;;;;;;